Time,TemperatureF,DewpointF,PressureIn,WindDirection,WindDirectionDegrees,WindSpeedMPH,WindSpeedGustMPH,Humidity,HourlyPrecipIn,Conditions,Clouds,dailyrainin,SoftwareType,DateUTC
2013-05-12 09:04:00,48.4,34.3,29.41,North,0,0.0,0.0,58,0.00,CLR,,0.00,WeatherDisplay:10.37,2013-05-12 17:04:00,
2013-05-12 09:09:00,48.6,34.9,29.41,North,0,0.0,0.0,59,0.00,CLR,,0.00,WeatherDisplay:10.37,2013-05-12 17:09:00,
2013-05-12 09:14:00,48.7,35.0,29.41,North,0,0.0,0.0,59,0.00,CLR,,0.00,WeatherDisplay:10.37,2013-05-12 17:14:00,
2013-05-12 09:19:00,48.7,35.0,29.41,North,0,0.0,0.0,59,0.00,CLR,,0.00,WeatherDisplay:10.37,2013-05-12 17:19:00,
2013-05-12 09:24:00,49.1,35.4,29.41,North,0,0.0,0.0,59,0.00,CLR,,0.00,WeatherDisplay:10.37,2013-05-12 17:24:00,
2013-05-12 09:29:00,49.5,36.1,29.41,North,0,0.0,0.0,60,0.00,CLR,,0.00,WeatherDisplay:10.37,2013-05-12 17:29:00,
2013-05-12 09:34:00,49.6,35.9,29.41,North,0,0.0,0.0,59,0.00,CLR,,0.00,WeatherDisplay:10.37,2013-05-12 17:34:00,
2013-05-12 09:39:00,49.6,35.5,29.41,North,0,0.0,0.0,58,0.00,CLR,,0.00,WeatherDisplay:10.37,2013-05-12 17:39:00,
2013-05-12 09:44:00,49.5,35.7,29.41,North,0,0.0,0.0,59,0.00,CLR,,0.00,WeatherDisplay:10.37,2013-05-12 17:44:00,
2013-05-12 09:49:00,49.5,35.7,29.41,North,0,0.0,0.0,59,0.00,CLR,,0.00,WeatherDisplay:10.37,2013-05-12 17:49:00,
2013-05-12 09:54:00,49.6,36.3,29.41,North,0,0.0,0.0,60,0.00,CLR,,0.00,WeatherDisplay:10.37,2013-05-12 17:54:00,
2013-05-12 09:59:00,50.0,37.5,29.41,North,0,0.0,0.0,62,0.00,CLR,,0.00,WeatherDisplay:10.37,2013-05-12 17:59:00,
2013-05-12 10:04:00,50.2,37.7,29.41,North,0,0.0,0.0,62,0.00,CLR,,0.00,WeatherDisplay:10.37,2013-05-12 18:04:00,
2013-05-12 10:09:00,50.4,38.2,29.41,North,0,0.0,0.0,63,0.00,CLR,,0.00,WeatherDisplay:10.37,2013-05-12 18:09:00,
2013-05-12 10:14:00,50.7,37.8,29.41,North,0,0.0,0.0,61,0.00,CLR,,0.00,WeatherDisplay:10.37,2013-05-12 18:14:00,
2013-05-12 10:19:00,50.7,37.8,29.41,North,0,0.0,0.0,61,0.00,CLR,,0.00,WeatherDisplay:10.37,2013-05-12 18:19:00,
2013-05-12 10:24:00,50.5,37.2,29.41,North,0,0.0,0.0,60,0.00,CLR,,0.00,WeatherDisplay:10.37,2013-05-12 18:24:00,
2013-05-12 10:29:00,50.7,37.8,29.41,North,0,0.0,0.0,61,0.00,CLR,,0.00,WeatherDisplay:10.37,2013-05-12 18:29:00,
2013-05-12 10:34:00,50.9,37.9,29.41,North,0,0.0,0.0,61,0.00,CLR,,0.00,WeatherDisplay:10.37,2013-05-12 18:34:00,
2013-05-12 10:39:00,51.3,37.8,29.41,North,0,0.0,0.0,60,0.00,CLR,,0.00,WeatherDisplay:10.37,2013-05-12 18:39:00,
2013-05-12 10:44:00,51.3,37.8,29.41,North,0,0.0,0.0,60,0.00,CLR,,0.00,WeatherDisplay:10.37,2013-05-12 18:44:00,
2013-05-12 10:49:00,50.7,37.3,29.41,North,0,0.0,0.0,60,0.00,CLR,,0.00,WeatherDisplay:10.37,2013-05-12 18:49:00,
2013-05-12 10:54:00,50.4,37.4,29.41,North,0,0.0,0.0,61,0.00,CLR,,0.00,WeatherDisplay:10.37,2013-05-12 18:54:00,
2013-05-12 10:59:00,50.2,37.2,29.44,North,0,0.0,0.0,61,0.00,CLR,,0.00,WeatherDisplay:10.37,2013-05-12 18:59:00,
2013-05-12 11:04:00,50.0,37.9,29.44,North,0,0.0,0.0,63,0.00,CLR,,0.00,WeatherDisplay:10.37,2013-05-12 19:04:00,
2013-05-12 11:09:00,50.2,38.1,29.44,North,0,0.0,0.0,63,0.00,CLR,,0.00,WeatherDisplay:10.37,2013-05-12 19:09:00,
2013-05-12 11:14:00,50.4,38.2,29.41,North,0,0.0,0.0,63,0.00,CLR,,0.00,WeatherDisplay:10.37,2013-05-12 19:14:00,
2013-05-12 11:19:00,50.4,37.8,29.41,North,0,0.0,0.0,62,0.00,CLR,,0.00,WeatherDisplay:10.37,2013-05-12 19:19:00,
2013-05-12 11:24:00,50.5,38.4,29.41,North,0,0.0,0.0,63,0.00,CLR,,0.00,WeatherDisplay:10.37,2013-05-12 19:24:00,
2013-05-12 11:29:00,51.6,39.8,29.41,North,0,0.0,0.0,64,0.00,CLR,,0.00,WeatherDisplay:10.37,2013-05-12 19:29:00,
2013-05-12 11:34:00,51.8,39.6,29.41,North,0,0.0,0.0,63,0.00,CLR,,0.00,WeatherDisplay:10.37,2013-05-12 19:34:00,
2013-05-12 11:39:00,52.3,39.3,29.41,North,0,0.0,0.0,61,0.00,CLR,,0.00,WeatherDisplay:10.37,2013-05-12 19:39:00,
2013-05-12 11:44:00,52.3,39.3,29.41,North,0,0.0,0.0,61,0.00,CLR,,0.00,WeatherDisplay:10.37,2013-05-12 19:44:00,
2013-05-12 11:49:00,52.2,38.7,29.41,North,0,0.0,0.0,60,0.00,CLR,,0.00,WeatherDisplay:10.37,2013-05-12 19:49:00,
2013-05-12 11:54:00,52.3,39.3,29.41,North,0,0.0,0.0,61,0.00,CLR,,0.00,WeatherDisplay:10.37,2013-05-12 19:54:00,
2013-05-12 11:59:00,52.3,39.3,29.41,North,0,0.0,0.0,61,0.00,CLR,,0.00,WeatherDisplay:10.37,2013-05-12 19:59:00,
2013-05-12 12:04:00,52.5,39.9,29.41,North,0,0.0,0.0,62,0.00,CLR,,0.00,WeatherDisplay:10.37,2013-05-12 20:04:00,
2013-05-12 12:09:00,53.2,40.5,29.41,North,0,0.0,0.0,62,0.00,CLR,,0.00,WeatherDisplay:10.37,2013-05-12 20:09:00,
2013-05-12 12:14:00,53.8,40.6,29.41,North,0,0.0,0.0,61,0.00,CLR,,0.00,WeatherDisplay:10.37,2013-05-12 20:14:00,
2013-05-12 12:19:00,53.8,39.8,29.41,North,0,0.0,0.0,59,0.00,CLR,,0.00,WeatherDisplay:10.37,2013-05-12 20:19:00,
2013-05-12 12:24:00,53.2,38.8,29.41,North,0,0.0,0.0,58,0.00,CLR,,0.00,WeatherDisplay:10.37,2013-05-12 20:24:00,
2013-05-12 12:29:00,53.1,39.1,29.41,North,0,0.0,0.0,59,0.00,CLR,,0.00,WeatherDisplay:10.37,2013-05-12 20:29:00,
2013-05-12 12:34:00,53.2,39.3,29.41,North,0,0.0,0.0,59,0.00,CLR,,0.00,WeatherDisplay:10.37,2013-05-12 20:34:00,
2013-05-12 12:39:00,53.8,39.3,29.41,North,0,0.0,0.0,58,0.00,CLR,,0.00,WeatherDisplay:10.37,2013-05-12 20:39:00,
2013-05-12 12:44:00,54.5,40.0,29.41,North,0,0.0,0.0,58,0.00,CLR,,0.00,WeatherDisplay:10.37,2013-05-12 20:44:00,
2013-05-12 12:49:00,54.5,39.1,29.41,North,0,0.0,0.0,56,0.00,CLR,,0.00,WeatherDisplay:10.37,2013-05-12 20:49:00,
2013-05-12 12:54:00,54.7,38.8,29.41,North,0,0.0,0.0,55,0.00,CLR,,0.00,WeatherDisplay:10.37,2013-05-12 20:54:00,
2013-05-12 12:59:00,54.3,38.9,29.41,North,0,0.0,0.0,56,0.00,CLR,,0.00,WeatherDisplay:10.37,2013-05-12 20:59:00,
2013-05-12 13:04:00,54.3,38.5,29.41,North,0,0.0,0.0,55,0.00,CLR,,0.00,WeatherDisplay:10.37,2013-05-12 21:04:00,
2013-05-12 13:09:00,53.8,38.4,29.41,North,0,0.0,0.0,56,0.00,CLR,,0.00,WeatherDisplay:10.37,2013-05-12 21:09:00,
2013-05-12 13:14:00,53.2,38.4,29.41,North,0,0.0,0.0,57,0.00,CLR,,0.00,WeatherDisplay:10.37,2013-05-12 21:14:00,
2013-05-12 13:19:00,53.2,38.4,29.41,North,0,0.0,0.0,57,0.00,CLR,,0.00,WeatherDisplay:10.37,2013-05-12 21:19:00,
2013-05-12 13:24:00,53.4,39.0,29.41,North,0,0.0,0.0,58,0.00,CLR,,0.00,WeatherDisplay:10.37,2013-05-12 21:24:00,
2013-05-12 13:29:00,53.4,39.4,29.41,North,0,0.0,0.0,59,0.00,CLR,,0.00,WeatherDisplay:10.37,2013-05-12 21:29:00,
2013-05-12 13:34:00,53.2,39.7,29.41,North,0,0.0,0.0,60,0.00,CLR,,0.00,WeatherDisplay:10.37,2013-05-12 21:34:00,
2013-05-12 13:39:00,53.2,40.1,29.41,North,0,0.0,0.0,61,0.00,CLR,,0.00,WeatherDisplay:10.37,2013-05-12 21:39:00,
2013-05-12 13:44:00,53.2,40.1,29.41,North,0,0.0,0.0,61,0.00,CLR,,0.00,WeatherDisplay:10.37,2013-05-12 21:44:00,
2013-05-12 13:49:00,53.1,40.0,29.41,North,0,0.0,0.0,61,0.00,CLR,,0.00,WeatherDisplay:10.37,2013-05-12 21:49:00,
2013-05-12 13:54:00,53.2,40.1,29.41,North,0,0.0,0.0,61,0.00,CLR,,0.00,WeatherDisplay:10.37,2013-05-12 21:54:00,
2013-05-12 13:59:00,52.9,40.6,29.41,North,0,0.0,0.0,63,0.00,CLR,,0.00,WeatherDisplay:10.37,2013-05-12 21:59:00,
2013-05-12 14:04:00,52.9,41.8,29.41,North,0,0.0,0.0,66,0.00,CLR,,0.00,WeatherDisplay:10.37,2013-05-12 22:04:00,
2013-05-12 14:09:00,52.3,41.3,29.41,North,0,0.0,0.0,66,0.00,CLR,,0.00,WeatherDisplay:10.37,2013-05-12 22:09:00,
2013-05-12 14:14:00,51.8,41.2,29.41,North,0,0.0,0.0,67,0.00,CLR,,0.00,WeatherDisplay:10.37,2013-05-12 22:14:00,
2013-05-12 14:19:00,51.4,42.0,29.41,North,0,0.0,0.0,70,0.00,CLR,,0.00,WeatherDisplay:10.37,2013-05-12 22:19:00,
2013-05-12 14:24:00,51.4,42.3,29.41,North,0,0.0,0.0,71,0.00,CLR,,0.00,WeatherDisplay:10.37,2013-05-12 22:24:00,
2013-05-12 14:29:00,51.3,42.2,29.41,North,0,0.0,0.0,71,0.00,CLR,,0.00,WeatherDisplay:10.37,2013-05-12 22:29:00,
2013-05-12 14:34:00,51.3,42.9,29.41,North,0,0.0,0.0,73,0.00,CLR,,0.00,WeatherDisplay:10.37,2013-05-12 22:34:00,
2013-05-12 14:39:00,51.3,43.3,29.41,North,0,0.0,0.0,74,0.00,CLR,,0.00,WeatherDisplay:10.37,2013-05-12 22:39:00,
2013-05-12 14:44:00,51.4,43.4,29.41,North,0,0.0,0.0,74,0.00,CLR,,0.00,WeatherDisplay:10.37,2013-05-12 22:44:00,
2013-05-12 14:49:00,51.6,43.6,29.41,North,0,0.0,0.0,74,0.00,CLR,,0.00,WeatherDisplay:10.37,2013-05-12 22:49:00,
2013-05-12 14:54:00,51.4,43.8,29.41,North,0,0.0,0.0,75,0.00,CLR,,0.00,WeatherDisplay:10.37,2013-05-12 22:54:00,
2013-05-12 14:59:00,51.6,44.3,29.41,North,0,0.0,0.0,76,0.00,CLR,,0.00,WeatherDisplay:10.37,2013-05-12 22:59:00,
2013-05-12 15:04:00,51.8,44.5,29.41,North,0,0.0,0.0,76,0.00,CLR,,0.00,WeatherDisplay:10.37,2013-05-12 23:04:00,
2013-05-12 15:09:00,51.6,44.0,29.41,North,0,0.0,0.0,75,0.00,CLR,,0.00,WeatherDisplay:10.37,2013-05-12 23:09:00,
2013-05-12 15:14:00,51.8,44.1,29.41,North,0,0.0,0.0,75,0.00,CLR,,0.00,WeatherDisplay:10.37,2013-05-12 23:14:00,
2013-05-12 15:19:00,52.0,44.3,29.41,North,0,0.0,0.0,75,0.00,CLR,,0.00,WeatherDisplay:10.37,2013-05-12 23:19:00,
2013-05-12 15:24:00,52.2,44.1,29.41,North,0,0.0,0.0,74,0.00,CLR,,0.00,WeatherDisplay:10.37,2013-05-12 23:24:00,
2013-05-12 15:29:00,52.0,43.6,29.38,North,0,0.0,0.0,73,0.00,CLR,,0.00,WeatherDisplay:10.37,2013-05-12 23:29:00,
2013-05-12 15:34:00,52.0,43.6,29.38,North,0,0.0,0.0,73,0.00,CLR,,0.00,WeatherDisplay:10.37,2013-05-12 23:34:00,
2013-05-12 15:39:00,52.0,44.3,29.38,North,0,0.0,0.0,75,0.00,CLR,,0.00,WeatherDisplay:10.37,2013-05-12 23:39:00,
2013-05-12 15:44:00,52.2,44.8,29.38,North,0,0.0,0.0,76,0.00,CLR,,0.00,WeatherDisplay:10.37,2013-05-12 23:44:00,
2013-05-12 15:49:00,52.0,44.3,29.38,North,0,0.0,0.0,75,0.00,CLR,,0.00,WeatherDisplay:10.37,2013-05-12 23:49:00,
2013-05-12 15:54:00,52.2,44.5,29.38,North,0,0.0,0.0,75,0.00,CLR,,0.00,WeatherDisplay:10.37,2013-05-12 23:54:00,
2013-05-12 15:59:00,52.3,45.0,29.38,North,0,0.0,0.0,76,0.00,CLR,,0.00,WeatherDisplay:10.37,2013-05-12 23:59:00,
2013-05-12 16:04:00,52.7,45.7,29.38,North,0,0.0,0.0,77,0.00,CLR,,0.00,WeatherDisplay:10.37,2013-05-13 00:04:00,
2013-05-12 16:09:00,52.7,46.0,29.38,North,0,0.0,0.0,78,0.00,CLR,,0.00,WeatherDisplay:10.37,2013-05-13 00:09:00,
2013-05-12 16:14:00,52.7,45.7,29.38,North,0,0.0,0.0,77,0.00,CLR,,0.00,WeatherDisplay:10.37,2013-05-13 00:14:00,
2013-05-12 16:19:00,52.9,45.9,29.38,North,0,0.0,0.0,77,0.00,CLR,,0.00,WeatherDisplay:10.37,2013-05-13 00:19:00,
2013-05-12 16:24:00,52.9,45.5,29.38,North,0,0.0,0.0,76,0.00,CLR,,0.00,WeatherDisplay:10.37,2013-05-13 00:24:00,
2013-05-12 16:29:00,52.7,45.7,29.38,North,0,0.0,0.0,77,0.00,CLR,,0.00,WeatherDisplay:10.37,2013-05-13 00:29:00,
2013-05-12 16:34:00,52.2,44.5,29.38,North,0,0.0,0.0,75,0.00,CLR,,0.00,WeatherDisplay:10.37,2013-05-13 00:34:00,
2013-05-12 16:39:00,51.8,44.1,29.38,North,0,0.0,0.0,75,0.00,CLR,,0.00,WeatherDisplay:10.37,2013-05-13 00:39:00,
2013-05-12 16:44:00,51.8,44.1,29.38,North,0,0.0,0.0,75,0.00,CLR,,0.00,WeatherDisplay:10.37,2013-05-13 00:44:00,
2013-05-12 16:49:00,52.2,45.2,29.38,North,0,0.0,0.0,77,0.00,CLR,,0.00,WeatherDisplay:10.37,2013-05-13 00:49:00,
2013-05-12 16:54:00,52.0,45.0,29.38,North,0,0.0,0.0,77,0.00,CLR,,0.00,WeatherDisplay:10.37,2013-05-13 00:54:00,
2013-05-12 16:59:00,52.0,45.0,29.38,North,0,0.0,0.0,77,0.00,CLR,,0.00,WeatherDisplay:10.37,2013-05-13 00:59:00,
2013-05-12 17:04:00,52.3,45.7,29.38,North,0,0.0,0.0,78,0.00,CLR,,0.00,WeatherDisplay:10.37,2013-05-13 01:04:00,
2013-05-12 17:09:00,52.7,46.0,29.38,North,0,0.0,0.0,78,0.00,CLR,,0.00,WeatherDisplay:10.37,2013-05-13 01:09:00,
2013-05-12 17:14:00,52.7,46.0,29.38,North,0,0.0,0.0,78,0.00,CLR,,0.00,WeatherDisplay:10.37,2013-05-13 01:14:00,
2013-05-12 17:19:00,52.9,46.2,29.38,North,0,0.0,0.0,78,0.00,CLR,,0.00,WeatherDisplay:10.37,2013-05-13 01:19:00,
2013-05-12 17:24:00,52.7,46.0,29.38,North,0,0.0,0.0,78,0.00,CLR,,0.00,WeatherDisplay:10.37,2013-05-13 01:24:00,
2013-05-12 17:29:00,52.5,46.2,29.38,North,0,0.0,0.0,79,0.00,CLR,,0.00,WeatherDisplay:10.37,2013-05-13 01:29:00,
2013-05-12 17:34:00,52.2,45.2,29.38,North,0,0.0,0.0,77,0.00,CLR,,0.00,WeatherDisplay:10.37,2013-05-13 01:34:00,
2013-05-12 17:39:00,52.0,46.3,29.38,North,0,0.0,0.0,81,0.00,CLR,,0.00,WeatherDisplay:10.37,2013-05-13 01:39:00,
2013-05-12 17:44:00,51.6,45.7,29.38,North,0,0.0,0.0,80,0.00,CLR,,0.00,WeatherDisplay:10.37,2013-05-13 01:44:00,
2013-05-12 17:49:00,51.8,45.8,29.38,North,0,0.0,0.0,80,0.00,CLR,,0.00,WeatherDisplay:10.37,2013-05-13 01:49:00,
2013-05-12 17:54:00,51.3,45.0,29.38,North,0,0.0,0.0,79,0.00,CLR,,0.00,WeatherDisplay:10.37,2013-05-13 01:54:00,
2013-05-12 17:59:00,50.9,45.6,29.38,North,0,0.0,0.0,82,0.00,CLR,,0.00,WeatherDisplay:10.37,2013-05-13 01:59:00,
2013-05-12 18:04:00,50.5,45.2,29.38,North,0,0.0,0.0,82,0.00,CLR,,0.00,WeatherDisplay:10.37,2013-05-13 02:04:00,
2013-05-12 18:09:00,50.2,44.9,29.38,North,0,0.0,0.0,82,0.00,CLR,,0.00,WeatherDisplay:10.37,2013-05-13 02:09:00,
2013-05-12 18:14:00,50.2,44.9,29.38,North,0,0.0,0.0,82,0.00,CLR,,0.00,WeatherDisplay:10.37,2013-05-13 02:14:00,
2013-05-12 18:19:00,50.0,45.0,29.38,North,0,0.0,0.0,83,0.00,CLR,,0.00,WeatherDisplay:10.37,2013-05-13 02:19:00,
2013-05-12 18:24:00,50.0,45.4,29.38,North,0,0.0,0.0,84,0.00,CLR,,0.00,WeatherDisplay:10.37,2013-05-13 02:24:00,
2013-05-12 18:29:00,49.6,45.9,29.38,North,0,0.0,0.0,87,0.00,CLR,,0.00,WeatherDisplay:10.37,2013-05-13 02:29:00,
2013-05-12 18:34:00,49.5,46.1,29.38,North,0,0.0,0.0,88,0.00,CLR,,0.00,WeatherDisplay:10.37,2013-05-13 02:34:00,
2013-05-12 18:39:00,49.3,46.2,29.38,North,0,0.0,0.0,89,0.00,CLR,,0.00,WeatherDisplay:10.37,2013-05-13 02:39:00,
2013-05-12 18:44:00,49.3,46.5,29.38,North,0,0.0,0.0,90,0.00,CLR,,0.00,WeatherDisplay:10.37,2013-05-13 02:44:00,
2013-05-12 18:49:00,49.3,46.5,29.38,North,0,0.0,0.0,90,0.00,CLR,,0.00,WeatherDisplay:10.37,2013-05-13 02:49:00,
2013-05-12 18:54:00,49.1,46.0,29.38,North,0,0.0,0.0,89,0.00,CLR,,0.00,WeatherDisplay:10.37,2013-05-13 02:54:00,
2013-05-12 18:59:00,49.3,45.9,29.38,North,0,0.0,0.0,88,0.00,CLR,,0.00,WeatherDisplay:10.37,2013-05-13 02:59:00,
2013-05-12 19:04:00,49.1,45.7,29.38,North,0,0.0,0.0,88,0.00,CLR,,0.00,WeatherDisplay:10.37,2013-05-13 03:04:00,
2013-05-12 19:09:00,48.9,45.5,29.38,North,0,0.0,0.0,88,0.00,CLR,,0.00,WeatherDisplay:10.37,2013-05-13 03:09:00,
2013-05-12 19:14:00,48.9,45.5,29.38,North,0,0.0,0.0,88,0.00,CLR,,0.00,WeatherDisplay:10.37,2013-05-13 03:14:00,
2013-05-12 19:19:00,49.1,46.0,29.38,North,0,0.0,0.0,89,0.00,CLR,,0.00,WeatherDisplay:10.37,2013-05-13 03:19:00,
2013-05-12 19:24:00,49.1,46.0,29.38,North,0,0.0,0.0,89,0.00,CLR,,0.00,WeatherDisplay:10.37,2013-05-13 03:24:00,
2013-05-12 19:29:00,48.9,45.8,29.38,North,0,0.0,0.0,89,0.00,CLR,,0.00,WeatherDisplay:10.37,2013-05-13 03:29:00,
2013-05-12 19:34:00,48.9,45.8,29.38,North,0,0.0,0.0,89,0.00,CLR,,0.00,WeatherDisplay:10.37,2013-05-13 03:34:00,
2013-05-12 19:39:00,48.9,45.8,29.38,North,0,0.0,0.0,89,0.00,CLR,,0.00,WeatherDisplay:10.37,2013-05-13 03:39:00,
2013-05-12 19:44:00,48.9,45.5,29.38,North,0,0.0,0.0,88,0.04,RA,,0.04,WeatherDisplay:10.37,2013-05-13 03:44:00,
2013-05-12 19:49:00,48.9,45.5,29.38,North,0,0.0,0.0,88,0.04,RA,,0.04,WeatherDisplay:10.37,2013-05-13 03:49:00,
2013-05-12 19:54:00,48.7,45.3,29.38,North,0,0.0,0.0,88,0.04,CLR,,0.04,WeatherDisplay:10.37,2013-05-13 03:54:00,
2013-05-12 19:59:00,48.7,45.6,29.35,North,0,0.0,0.0,89,0.04,CLR,,0.04,WeatherDisplay:10.37,2013-05-13 03:59:00,
2013-05-12 20:01:00,48.6,45.5,29.35,North,0,0.0,0.0,89,0.04,CLR,,0.04,WeatherDisplay:10.37,2013-05-13 04:01:00,
2013-05-12 20:02:00,48.6,45.5,29.35,North,0,0.0,0.0,89,0.04,CLR,,0.04,WeatherDisplay:10.37,2013-05-13 04:02:00,
2013-05-12 20:03:00,48.6,45.5,29.35,North,0,0.0,0.0,89,0.04,CLR,,0.04,WeatherDisplay:10.37,2013-05-13 04:03:00,
2013-05-12 20:04:00,48.6,45.5,29.35,North,0,0.0,0.0,89,0.04,CLR,,0.04,WeatherDisplay:10.37,2013-05-13 04:04:00,
2013-05-12 20:07:00,48.6,45.8,29.35,North,0,0.0,0.0,90,0.04,CLR,,0.04,WeatherDisplay:10.37,2013-05-13 04:07:00,
2013-05-12 20:12:00,48.4,46.4,29.35,North,0,0.0,0.0,93,0.04,CLR,,0.04,WeatherDisplay:10.37,2013-05-13 04:12:00,
2013-05-12 20:17:00,48.2,46.3,29.38,North,0,0.0,0.0,93,0.04,CLR,,0.04,WeatherDisplay:10.37,2013-05-13 04:17:00,
2013-05-12 20:22:00,48.0,46.4,29.38,North,0,0.0,0.0,94,0.04,CLR,,0.04,WeatherDisplay:10.37,2013-05-13 04:22:00,
2013-05-12 20:27:00,48.0,46.1,29.38,North,0,0.0,0.0,93,0.04,CLR,,0.04,WeatherDisplay:10.37,2013-05-13 04:27:00,
2013-05-12 20:32:00,47.8,45.6,29.38,North,0,0.0,0.0,92,0.04,CLR,,0.04,WeatherDisplay:10.37,2013-05-13 04:32:00,
2013-05-12 20:37:00,47.8,45.6,29.38,North,0,0.0,0.0,92,0.04,CLR,,0.04,WeatherDisplay:10.37,2013-05-13 04:37:00,
2013-05-12 20:42:00,47.7,45.7,29.38,North,0,0.0,0.0,93,0.00,CLR,,0.04,WeatherDisplay:10.37,2013-05-13 04:42:00,
2013-05-12 20:47:00,47.5,45.6,29.38,North,0,0.0,0.0,93,0.00,CLR,,0.04,WeatherDisplay:10.37,2013-05-13 04:47:00,
2013-05-12 20:52:00,47.5,45.6,29.38,North,0,0.0,0.0,93,0.00,CLR,,0.04,WeatherDisplay:10.37,2013-05-13 04:52:00,
2013-05-12 20:57:00,47.3,45.4,29.38,North,0,0.0,0.0,93,0.00,CLR,,0.04,WeatherDisplay:10.37,2013-05-13 04:57:00,
2013-05-12 21:02:00,47.3,45.4,29.38,North,0,0.0,0.0,93,0.00,CLR,,0.04,WeatherDisplay:10.37,2013-05-13 05:02:00,
2013-05-12 21:07:00,47.1,45.2,29.38,North,0,0.0,0.0,93,0.00,CLR,,0.04,WeatherDisplay:10.37,2013-05-13 05:07:00,
2013-05-12 21:12:00,47.3,45.7,29.38,North,0,0.0,0.0,94,0.00,CLR,,0.04,WeatherDisplay:10.37,2013-05-13 05:12:00,
2013-05-12 21:17:00,47.3,45.7,29.38,North,0,0.0,0.0,94,0.00,CLR,,0.08,WeatherDisplay:10.37,2013-05-13 05:17:00,
2013-05-12 21:22:00,47.3,45.4,29.38,North,0,0.0,0.0,93,0.04,RA,,0.08,WeatherDisplay:10.37,2013-05-13 05:22:00,
2013-05-12 21:27:00,47.3,45.4,29.38,North,0,0.0,0.0,93,0.04,RA,,0.08,WeatherDisplay:10.37,2013-05-13 05:27:00,
2013-05-12 21:32:00,47.3,45.7,29.38,North,0,0.0,0.0,94,0.04,CLR,,0.08,WeatherDisplay:10.37,2013-05-13 05:32:00,
2013-05-12 21:37:00,47.3,45.7,29.38,North,0,0.0,0.0,94,0.04,CLR,,0.08,WeatherDisplay:10.37,2013-05-13 05:37:00,
2013-05-12 21:42:00,47.1,45.5,29.38,North,0,0.0,0.0,94,0.04,CLR,,0.08,WeatherDisplay:10.37,2013-05-13 05:42:00,
2013-05-12 21:47:00,46.9,45.3,29.38,North,0,0.0,0.0,94,0.04,CLR,,0.08,WeatherDisplay:10.37,2013-05-13 05:47:00,
2013-05-12 21:52:00,46.9,45.6,29.38,North,0,0.0,0.0,95,0.04,CLR,,0.08,WeatherDisplay:10.37,2013-05-13 05:52:00,
2013-05-12 21:57:00,46.9,45.6,29.38,North,0,0.0,0.0,95,0.04,CLR,,0.08,WeatherDisplay:10.37,2013-05-13 05:57:00,
2013-05-12 22:02:00,46.9,45.9,29.35,North,0,0.0,0.0,96,0.04,CLR,,0.08,WeatherDisplay:10.37,2013-05-13 06:02:00,
2013-05-12 22:07:00,46.8,45.7,29.35,North,0,0.0,0.0,96,0.04,CLR,,0.08,WeatherDisplay:10.37,2013-05-13 06:07:00,
2013-05-12 22:12:00,46.8,45.7,29.35,North,0,0.0,0.0,96,0.04,CLR,,0.08,WeatherDisplay:10.37,2013-05-13 06:12:00,
2013-05-12 22:17:00,46.8,45.7,29.35,North,0,0.0,0.0,96,0.04,CLR,,0.08,WeatherDisplay:10.37,2013-05-13 06:17:00,
2013-05-12 22:22:00,46.8,45.4,29.35,North,0,0.0,0.0,95,0.00,CLR,,0.08,WeatherDisplay:10.37,2013-05-13 06:22:00,
2013-05-12 22:27:00,46.8,45.4,29.35,North,0,0.0,0.0,95,0.00,CLR,,0.08,WeatherDisplay:10.37,2013-05-13 06:27:00,
2013-05-12 22:32:00,46.8,45.4,29.35,North,0,0.0,0.0,95,0.00,CLR,,0.08,WeatherDisplay:10.37,2013-05-13 06:32:00,
2013-05-12 22:37:00,46.8,45.7,29.35,North,0,0.0,0.0,96,0.04,RA,,0.12,WeatherDisplay:10.37,2013-05-13 06:37:00,
2013-05-12 22:42:00,46.8,45.7,29.35,North,0,0.0,0.0,96,0.04,RA,,0.12,WeatherDisplay:10.37,2013-05-13 06:42:00,
2013-05-12 22:47:00,46.8,45.7,29.35,North,0,0.0,0.0,96,0.04,,,0.12,WeatherDisplay:10.37,2013-05-13 06:47:00,
2013-05-12 22:52:00,46.8,45.7,29.35,North,0,0.0,0.0,96,0.04,CLR,,0.12,WeatherDisplay:10.37,2013-05-13 06:52:00,
2013-05-12 22:57:00,46.8,45.7,29.35,North,0,0.0,0.0,96,0.04,CLR,,0.12,WeatherDisplay:10.37,2013-05-13 06:57:00,
2013-05-12 23:02:00,46.8,45.7,29.35,North,0,0.0,0.0,96,0.04,CLR,,0.12,WeatherDisplay:10.37,2013-05-13 07:02:00,
2013-05-12 23:07:00,46.8,45.7,29.35,North,0,0.0,0.0,96,0.04,CLR,,0.12,WeatherDisplay:10.37,2013-05-13 07:07:00,
2013-05-12 23:12:00,46.6,45.5,29.35,North,0,0.0,0.0,96,0.04,CLR,,0.12,WeatherDisplay:10.37,2013-05-13 07:12:00,
2013-05-12 23:17:00,46.6,45.2,29.35,North,0,0.0,0.0,95,0.04,CLR,,0.12,WeatherDisplay:10.37,2013-05-13 07:17:00,
2013-05-12 23:22:00,46.6,45.2,29.35,North,0,0.0,0.0,95,0.04,CLR,,0.12,WeatherDisplay:10.37,2013-05-13 07:22:00,
2013-05-12 23:27:00,46.4,44.8,29.35,North,0,0.0,0.0,94,0.04,CLR,,0.12,WeatherDisplay:10.37,2013-05-13 07:27:00,
2013-05-12 23:32:00,46.2,44.3,29.35,North,0,0.0,0.0,93,0.04,CLR,,0.12,WeatherDisplay:10.37,2013-05-13 07:32:00,
2013-05-12 23:37:00,46.2,44.3,29.35,North,0,0.0,0.0,93,0.00,CLR,,0.12,WeatherDisplay:10.37,2013-05-13 07:37:00,
2013-05-12 23:42:00,46.0,43.8,29.35,North,0,0.0,0.0,92,0.00,CLR,,0.12,WeatherDisplay:10.37,2013-05-13 07:42:00,
2013-05-12 23:47:00,45.9,43.7,29.35,North,0,0.0,0.0,92,0.00,CLR,,0.12,WeatherDisplay:10.37,2013-05-13 07:47:00,
2013-05-12 23:52:00,45.7,43.5,29.35,North,0,0.0,0.0,92,0.00,CLR,,0.12,WeatherDisplay:10.37,2013-05-13 07:52:00,
2013-05-12 23:57:00,45.7,43.5,29.35,North,0,0.0,0.0,92,0.00,CLR,,0.12,WeatherDisplay:10.37,2013-05-13 07:57:00,